createdAt,value
2016-11-23T00:00:52.226Z,10.4
2016-11-23T00:01:58.222Z,10.4
2016-11-23T00:03:04.220Z,10.4
2016-11-23T00:04:10.228Z,10.3
2016-11-23T00:05:16.226Z,10.4
2016-11-23T00:06:22.227Z,10.4
2016-11-23T00:07:28.237Z,10.4
2016-11-23T00:08:34.241Z,10.4
2016-11-23T00:09:40.244Z,10.4
2016-11-23T00:10:46.243Z,10.4
2016-11-23T00:11:52.246Z,10.4
2016-11-23T00:12:58.253Z,10.4
2016-11-23T00:14:04.252Z,10.4
2016-11-23T00:15:10.259Z,10.4
2016-11-23T00:16:16.259Z,10.4
2016-11-23T00:17:22.259Z,10.4
2016-11-23T00:18:28.263Z,10.4
2016-11-23T00:19:34.255Z,10.4
2016-11-23T00:20:40.251Z,10.4
2016-11-23T00:21:46.253Z,10.3
2016-11-23T00:22:52.251Z,10.3
2016-11-23T00:23:58.256Z,10.3
2016-11-23T00:25:04.263Z,10.4
2016-11-23T00:26:10.270Z,10.4
2016-11-23T00:27:16.265Z,10.3
2016-11-23T00:28:22.268Z,10.4
2016-11-23T00:29:28.271Z,10.4
2016-11-23T00:30:34.376Z,10.3
2016-11-23T00:31:40.375Z,10.3
2016-11-23T00:32:46.379Z,10.3
2016-11-23T00:33:52.384Z,10.3
2016-11-23T00:34:58.385Z,10.3
2016-11-23T00:36:04.387Z,10.3
2016-11-23T00:37:10.389Z,10.3
2016-11-23T00:38:16.396Z,10.3
2016-11-23T00:39:22.401Z,10.3
2016-11-23T00:40:28.407Z,10.2
2016-11-23T00:41:34.409Z,10.3
2016-11-23T00:42:40.416Z,10.3
2016-11-23T00:43:46.421Z,10.3
2016-11-23T00:44:52.420Z,10.3
2016-11-23T00:45:58.429Z,10.3
2016-11-23T00:47:04.428Z,10.3
2016-11-23T00:48:10.429Z,10.3
2016-11-23T00:49:16.423Z,10.3
2016-11-23T00:50:22.429Z,10.3
2016-11-23T00:51:28.426Z,10.3
2016-11-23T00:52:34.427Z,10.2
2016-11-23T00:53:40.440Z,10.2
2016-11-23T00:54:45.345Z,10.2
2016-11-23T00:55:51.343Z,10.2
2016-11-23T00:56:57.342Z,10.2
2016-11-23T00:58:03.345Z,10.2
2016-11-23T00:59:09.351Z,10.2
2016-11-23T01:00:15.351Z,10.2
2016-11-23T01:01:21.350Z,10.2
2016-11-23T01:02:27.350Z,10.2
2016-11-23T01:03:33.352Z,10.2
2016-11-23T01:04:39.353Z,10.2
2016-11-23T01:05:45.361Z,10.2
2016-11-23T01:06:51.363Z,10.2
2016-11-23T01:07:57.370Z,10.2
2016-11-23T01:09:03.362Z,10.2
2016-11-23T01:10:09.372Z,10.2
2016-11-23T01:11:15.370Z,10.2
2016-11-23T01:12:21.370Z,10.2
2016-11-23T01:13:27.363Z,10.2
2016-11-23T01:14:33.376Z,10.2
2016-11-23T01:15:39.377Z,10.2
2016-11-23T01:16:45.375Z,10.2
2016-11-23T01:17:51.379Z,10.2
2016-11-23T01:18:57.388Z,10.2
2016-11-23T01:20:03.389Z,10.2
2016-11-23T01:21:09.387Z,10.2
2016-11-23T01:22:15.384Z,10.2
2016-11-23T01:23:21.379Z,10.2
2016-11-23T01:24:27.377Z,10.2
2016-11-23T01:25:33.375Z,10.3
2016-11-23T01:26:39.377Z,10.3
2016-11-23T01:27:45.373Z,10.3
2016-11-23T01:28:51.372Z,10.3
2016-11-23T01:29:57.370Z,10.3
2016-11-23T01:31:03.365Z,10.3
2016-11-23T01:32:09.366Z,10.3
2016-11-23T01:33:15.366Z,10.3
2016-11-23T01:34:21.366Z,10.3
2016-11-23T01:35:27.372Z,10.3
2016-11-23T01:36:33.374Z,10.3
2016-11-23T01:37:39.377Z,10.2
2016-11-23T01:38:45.378Z,10.2
2016-11-23T01:39:51.386Z,10.2
2016-11-23T01:40:57.390Z,10.2
2016-11-23T01:42:03.386Z,10.1
2016-11-23T01:43:09.387Z,10
2016-11-23T01:44:15.388Z,9.9
2016-11-23T01:45:21.391Z,9.9
2016-11-23T01:46:27.390Z,9.9
2016-11-23T01:47:33.399Z,9.9
2016-11-23T01:48:39.390Z,9.9
2016-11-23T01:49:45.393Z,9.9
2016-11-23T01:50:51.399Z,9.9
2016-11-23T01:51:57.399Z,9.9
2016-11-23T01:53:03.401Z,9.9
2016-11-23T01:54:09.400Z,9.9
2016-11-23T01:55:15.400Z,10
2016-11-23T01:56:21.406Z,9.9
2016-11-23T01:57:27.406Z,9.9
2016-11-23T01:58:33.408Z,9.8
2016-11-23T01:59:39.404Z,9.7
2016-11-23T02:00:45.407Z,9.8
2016-11-23T02:01:51.406Z,9.8
2016-11-23T02:02:57.408Z,9.8
2016-11-23T02:04:03.411Z,9.8
2016-11-23T02:05:09.420Z,9.8
2016-11-23T02:06:15.418Z,9.7
2016-11-23T02:07:21.413Z,9.7
2016-11-23T02:08:27.414Z,9.7
2016-11-23T02:09:33.417Z,9.7
2016-11-23T02:10:39.414Z,9.8
2016-11-23T02:11:45.414Z,9.8
2016-11-23T02:12:51.408Z,9.8
2016-11-23T02:13:57.409Z,9.8
2016-11-23T02:15:03.407Z,9.8
2016-11-23T02:16:09.403Z,9.8
2016-11-23T02:17:15.395Z,9.8
2016-11-23T02:18:21.399Z,9.8
2016-11-23T02:19:27.399Z,9.8
2016-11-23T02:20:33.395Z,9.7
2016-11-23T02:21:39.402Z,9.7
2016-11-23T02:22:45.408Z,9.8
2016-11-23T02:23:51.407Z,9.8
2016-11-23T02:24:57.402Z,9.8
2016-11-23T02:26:03.411Z,9.8
2016-11-23T02:27:09.401Z,9.8
2016-11-23T02:28:15.401Z,9.8
2016-11-23T02:29:21.397Z,9.8
2016-11-23T02:30:27.408Z,9.8
2016-11-23T02:31:33.407Z,9.8
2016-11-23T02:32:39.410Z,9.7
2016-11-23T02:33:45.403Z,9.7
2016-11-23T02:34:51.398Z,9.7
2016-11-23T02:35:57.395Z,9.7
2016-11-23T02:37:03.397Z,9.7
2016-11-23T02:38:09.393Z,9.7
2016-11-23T02:39:15.396Z,9.7
2016-11-23T02:40:21.398Z,9.7
2016-11-23T02:41:27.397Z,9.7
2016-11-23T02:42:33.393Z,9.7
2016-11-23T02:43:39.394Z,9.8
2016-11-23T02:44:45.389Z,9.7
2016-11-23T02:45:51.386Z,9.7
2016-11-23T02:46:57.383Z,9.7
2016-11-23T02:48:03.384Z,9.7
2016-11-23T02:49:09.384Z,9.8
2016-11-23T02:50:15.390Z,9.8
2016-11-23T02:51:21.391Z,9.7
2016-11-23T02:52:27.390Z,9.8
2016-11-23T02:53:33.391Z,9.8
2016-11-23T02:54:39.389Z,9.8
2016-11-23T02:55:45.383Z,9.8
2016-11-23T02:56:51.386Z,9.8
2016-11-23T02:57:57.385Z,9.8
2016-11-23T02:59:03.391Z,9.8
2016-11-23T03:00:09.386Z,9.8
2016-11-23T03:01:14.640Z,9.8
2016-11-23T03:02:20.637Z,9.8
2016-11-23T03:03:26.633Z,9.7
2016-11-23T03:04:32.626Z,9.7
2016-11-23T03:05:38.627Z,9.7
2016-11-23T03:06:44.627Z,9.7
2016-11-23T03:07:50.631Z,9.7
2016-11-23T03:08:56.632Z,9.7
2016-11-23T03:10:02.628Z,9.6
2016-11-23T03:11:08.633Z,9.6
2016-11-23T03:12:14.624Z,9.6
2016-11-23T03:13:20.629Z,9.6
2016-11-23T03:14:26.625Z,9.7
2016-11-23T03:15:32.620Z,9.7
2016-11-23T03:16:38.613Z,9.7
2016-11-23T03:17:44.618Z,9.7
2016-11-23T03:18:50.630Z,9.6
2016-11-23T03:19:56.621Z,9.5
2016-11-23T03:21:02.618Z,9.5
2016-11-23T03:22:08.618Z,9.5
2016-11-23T03:23:14.628Z,9.5
2016-11-23T03:24:20.617Z,9.6
2016-11-23T03:25:26.616Z,9.6
2016-11-23T03:26:32.622Z,9.6
2016-11-23T03:27:38.629Z,9.6
2016-11-23T03:28:44.617Z,9.6
2016-11-23T03:29:50.621Z,9.6
2016-11-23T03:30:56.624Z,9.6
2016-11-23T03:32:02.623Z,9.6
2016-11-23T03:33:08.625Z,9.6
2016-11-23T03:34:14.624Z,9.6
2016-11-23T03:35:20.627Z,9.6
2016-11-23T03:36:26.623Z,9.6
2016-11-23T03:37:32.627Z,9.6
2016-11-23T03:38:38.625Z,9.5
2016-11-23T03:39:44.628Z,9.6
2016-11-23T03:40:50.626Z,9.6
2016-11-23T03:41:56.618Z,9.6
2016-11-23T03:43:02.623Z,9.6
2016-11-23T03:44:08.624Z,9.6
2016-11-23T03:45:14.623Z,9.6
2016-11-23T03:46:20.623Z,9.6
2016-11-23T03:47:26.628Z,9.6
2016-11-23T03:48:32.634Z,9.6
2016-11-23T03:49:38.629Z,9.6
2016-11-23T03:50:44.620Z,9.6
2016-11-23T03:51:50.625Z,9.6
2016-11-23T03:52:56.626Z,9.6
2016-11-23T03:54:02.627Z,9.6
2016-11-23T03:55:08.618Z,9.6
2016-11-23T03:56:14.610Z,9.5
2016-11-23T03:57:20.612Z,9.5
2016-11-23T03:58:26.616Z,9.5
2016-11-23T03:59:32.613Z,9.5
2016-11-23T04:00:38.604Z,9.6
2016-11-23T04:01:44.606Z,9.5
2016-11-23T04:02:50.607Z,9.4
2016-11-23T04:03:56.610Z,9.4
2016-11-23T04:05:02.607Z,9.4
2016-11-23T04:06:08.604Z,9.4
2016-11-23T04:07:14.609Z,9.4
2016-11-23T04:08:20.609Z,9.3
2016-11-23T04:09:26.609Z,9.3
2016-11-23T04:10:32.609Z,9.2
2016-11-23T04:11:38.613Z,9.3
2016-11-23T04:12:44.614Z,9.2
2016-11-23T04:13:50.605Z,9.3
2016-11-23T04:14:56.603Z,9.3
2016-11-23T04:16:02.604Z,9.3
2016-11-23T04:17:08.607Z,9.3
2016-11-23T04:18:14.603Z,9.3
2016-11-23T04:19:20.598Z,9.3
2016-11-23T04:20:26.599Z,9.3
2016-11-23T04:21:32.604Z,9.4
2016-11-23T04:22:38.604Z,9.4
2016-11-23T04:23:44.605Z,9.4
2016-11-23T04:24:50.599Z,9.4
2016-11-23T04:25:56.598Z,9.4
2016-11-23T04:27:02.600Z,9.3
2016-11-23T04:28:08.595Z,9.4
2016-11-23T04:29:14.597Z,9.4
2016-11-23T04:30:20.600Z,9.3
2016-11-23T04:31:26.594Z,9.3
2016-11-23T04:32:32.583Z,9.3
2016-11-23T04:33:38.582Z,9.3
2016-11-23T04:34:44.585Z,9.3
2016-11-23T04:35:50.581Z,9.4
2016-11-23T04:36:56.588Z,9.4
2016-11-23T04:38:02.590Z,9.4
2016-11-23T04:39:08.590Z,9.4
2016-11-23T04:40:14.580Z,9.3
2016-11-23T04:41:20.592Z,9.3
2016-11-23T04:42:26.595Z,9.3
2016-11-23T04:43:32.588Z,9.3
2016-11-23T04:44:38.587Z,9.4
2016-11-23T04:45:44.596Z,9.4
2016-11-23T04:46:50.598Z,9.4
2016-11-23T04:47:56.597Z,9.4
2016-11-23T04:49:02.594Z,9.4
2016-11-23T04:50:08.603Z,9.4
2016-11-23T04:51:14.613Z,9.4
2016-11-23T04:52:20.599Z,9.5
2016-11-23T04:53:26.602Z,9.5
2016-11-23T04:54:32.603Z,9.5
2016-11-23T04:55:38.611Z,9.5
2016-11-23T04:56:44.604Z,9.5
2016-11-23T04:57:50.604Z,9.5
2016-11-23T04:58:56.605Z,9.5
2016-11-23T05:00:02.601Z,9.5
2016-11-23T05:01:08.592Z,9.5
2016-11-23T05:02:14.689Z,9.5
2016-11-23T05:03:20.692Z,9.5
2016-11-23T05:04:26.684Z,9.5
2016-11-23T05:05:32.686Z,9.5
2016-11-23T05:06:38.683Z,9.5
2016-11-23T05:07:44.684Z,9.5
2016-11-23T05:08:50.672Z,9.4
2016-11-23T05:09:56.681Z,9.4
2016-11-23T05:11:02.683Z,9.4
2016-11-23T05:12:08.684Z,9.4
2016-11-23T05:13:14.678Z,9.3
2016-11-23T05:14:20.677Z,9.3
2016-11-23T05:15:26.680Z,9.4
2016-11-23T05:16:32.689Z,9.4
2016-11-23T05:17:38.685Z,9.4
2016-11-23T05:18:44.673Z,9.4
2016-11-23T05:19:50.675Z,9.4
2016-11-23T05:20:56.678Z,9.5
2016-11-23T05:22:02.675Z,9.5
2016-11-23T05:23:08.673Z,9.5
2016-11-23T05:24:14.675Z,9.5
2016-11-23T05:25:20.681Z,9.5
2016-11-23T05:26:26.675Z,9.5
2016-11-23T05:27:32.679Z,9.5
2016-11-23T05:28:38.683Z,9.5
2016-11-23T05:29:44.683Z,9.6
2016-11-23T05:30:50.683Z,9.6
2016-11-23T05:31:56.678Z,9.6
2016-11-23T05:33:02.682Z,9.6
2016-11-23T05:34:08.677Z,9.6
2016-11-23T05:35:14.674Z,9.6
2016-11-23T05:36:20.677Z,9.6
2016-11-23T05:37:26.676Z,9.6
2016-11-23T05:38:32.671Z,9.6
2016-11-23T05:39:38.672Z,9.6
2016-11-23T05:40:44.668Z,9.7
2016-11-23T05:41:50.664Z,9.7
2016-11-23T05:42:56.663Z,9.7
2016-11-23T05:44:02.668Z,9.7
2016-11-23T05:45:08.669Z,9.7
2016-11-23T05:46:14.667Z,9.7
2016-11-23T05:47:20.664Z,9.7
2016-11-23T05:48:26.668Z,9.7
2016-11-23T05:49:32.667Z,9.7
2016-11-23T05:50:38.672Z,9.7
2016-11-23T05:51:44.676Z,9.5
2016-11-23T05:52:50.672Z,9.5
2016-11-23T05:53:56.672Z,9.5
2016-11-23T05:55:02.670Z,9.5
2016-11-23T05:56:08.674Z,9.5
2016-11-23T05:57:14.671Z,9.5
2016-11-23T05:58:20.669Z,9.5
2016-11-23T05:59:26.673Z,9.5
2016-11-23T06:00:32.677Z,9.4
2016-11-23T06:01:38.679Z,9.4
2016-11-23T06:02:44.671Z,9.4
2016-11-23T06:03:50.666Z,9.4
2016-11-23T06:04:56.662Z,9.4
2016-11-23T06:06:02.656Z,9.4
2016-11-23T06:07:08.654Z,9.3
2016-11-23T06:08:14.651Z,9.3
2016-11-23T06:09:20.652Z,9.4
2016-11-23T06:10:26.645Z,9.5
2016-11-23T06:11:32.646Z,9.5
2016-11-23T06:12:38.634Z,9.6
2016-11-23T06:13:44.632Z,9.5
2016-11-23T06:14:50.630Z,9.4
2016-11-23T06:15:56.630Z,9.4
2016-11-23T06:17:02.630Z,9.4
2016-11-23T06:18:08.639Z,9.4
2016-11-23T06:19:14.632Z,9.4
2016-11-23T06:20:20.629Z,9.3
2016-11-23T06:21:26.635Z,9.4
2016-11-23T06:22:32.626Z,9.4
2016-11-23T06:23:38.626Z,9.4
2016-11-23T06:24:44.621Z,9.4
2016-11-23T06:25:50.627Z,9.4
2016-11-23T06:26:56.628Z,9.4
2016-11-23T06:28:02.622Z,9.4
2016-11-23T06:29:08.624Z,9.4
2016-11-23T06:30:14.623Z,9.4
2016-11-23T06:31:20.621Z,9.4
2016-11-23T06:32:25.867Z,9.4
2016-11-23T06:33:31.868Z,9.3
2016-11-23T06:34:37.872Z,9.3
2016-11-23T06:35:43.870Z,9.3
2016-11-23T06:36:49.868Z,9.3
2016-11-23T06:37:55.873Z,9.2
2016-11-23T06:39:01.871Z,9.2
2016-11-23T06:40:07.865Z,9.2
2016-11-23T06:41:13.861Z,9.1
2016-11-23T06:42:19.868Z,9.1
2016-11-23T06:43:25.868Z,9.1
2016-11-23T06:44:31.864Z,9
2016-11-23T06:45:37.876Z,9
2016-11-23T06:46:43.881Z,9
2016-11-23T06:47:49.882Z,9
2016-11-23T06:48:55.879Z,9
2016-11-23T06:50:01.887Z,9
2016-11-23T06:51:07.882Z,9
2016-11-23T06:52:13.887Z,8.9
2016-11-23T06:53:19.880Z,8.9
2016-11-23T06:54:25.878Z,8.9
2016-11-23T06:55:31.879Z,9
2016-11-23T06:56:37.879Z,8.9
2016-11-23T06:57:43.877Z,9
2016-11-23T06:58:49.875Z,9
2016-11-23T06:59:55.875Z,8.8
2016-11-23T07:01:01.868Z,8.8
2016-11-23T07:02:07.864Z,8.8
2016-11-23T07:03:13.866Z,8.8
2016-11-23T07:04:19.871Z,8.8
2016-11-23T07:05:25.867Z,8.8
2016-11-23T07:06:31.865Z,8.8
2016-11-23T07:07:37.867Z,8.8
2016-11-23T07:08:43.858Z,8.7
2016-11-23T07:09:49.851Z,8.7
2016-11-23T07:10:55.845Z,8.7
2016-11-23T07:12:01.848Z,8.7
2016-11-23T07:13:07.854Z,8.8
2016-11-23T07:14:13.856Z,8.7
2016-11-23T07:15:19.852Z,8.7
2016-11-23T07:16:25.858Z,8.8
2016-11-23T07:17:31.854Z,8.8
2016-11-23T07:18:37.853Z,8.9
2016-11-23T07:19:43.850Z,8.9
2016-11-23T07:20:49.849Z,8.9
2016-11-23T07:21:55.854Z,8.9
2016-11-23T07:23:01.849Z,9
2016-11-23T07:24:07.851Z,9
2016-11-23T07:25:13.849Z,9
2016-11-23T07:26:19.847Z,9.1
2016-11-23T07:27:25.852Z,9.1
2016-11-23T07:28:31.857Z,9.1
2016-11-23T07:29:37.857Z,9.1
2016-11-23T07:30:43.856Z,9.1
2016-11-23T07:31:49.858Z,9.1
2016-11-23T07:32:55.852Z,9.2
2016-11-23T07:34:01.848Z,9.2
2016-11-23T07:35:07.848Z,9.2
2016-11-23T07:36:13.845Z,9.3
2016-11-23T07:37:19.846Z,9.3
2016-11-23T07:38:25.843Z,9.3
2016-11-23T07:39:31.841Z,9.4
2016-11-23T07:40:37.838Z,9.4
2016-11-23T07:41:43.843Z,9.5
2016-11-23T07:42:49.845Z,9.5
2016-11-23T07:43:55.846Z,9.6
2016-11-23T07:45:01.842Z,9.6
2016-11-23T07:46:07.838Z,9.7
2016-11-23T07:47:13.843Z,9.7
2016-11-23T07:48:19.839Z,9.8
2016-11-23T07:49:25.845Z,9.8
2016-11-23T07:50:31.836Z,9.8
2016-11-23T07:51:37.831Z,9.8
2016-11-23T07:52:43.831Z,9.9
2016-11-23T07:53:49.841Z,9.9
2016-11-23T07:54:55.836Z,9.9
2016-11-23T07:56:01.838Z,10
2016-11-23T07:57:07.842Z,10
2016-11-23T07:58:13.852Z,10.1
2016-11-23T07:59:19.850Z,10.1
2016-11-23T08:00:25.844Z,10.1
2016-11-23T08:01:38.233Z,10.1
2016-11-23T08:02:44.237Z,10.1
2016-11-23T08:03:49.497Z,10.1
2016-11-23T08:04:55.500Z,10.2
2016-11-23T08:06:01.505Z,10.2
2016-11-23T08:07:07.505Z,10.3
2016-11-23T08:08:13.508Z,10.3
2016-11-23T08:09:19.512Z,10.4
2016-11-23T08:10:25.516Z,10.4
2016-11-23T08:11:31.515Z,10.4
2016-11-23T08:12:37.516Z,10.4
2016-11-23T08:13:43.517Z,10.5
2016-11-23T08:14:49.533Z,10.5
2016-11-23T08:15:55.562Z,10.5
2016-11-23T08:17:01.561Z,10.5
2016-11-23T08:18:07.567Z,10.6
2016-11-23T08:19:13.586Z,10.6
2016-11-23T08:20:19.593Z,10.6
2016-11-23T08:21:25.600Z,10.7
2016-11-23T08:22:31.604Z,10.7
2016-11-23T08:23:37.602Z,10.7
2016-11-23T08:24:43.601Z,10.7
2016-11-23T08:25:49.604Z,10.7
2016-11-23T08:26:55.614Z,10.7
2016-11-23T08:28:01.617Z,10.7
2016-11-23T08:29:07.622Z,10.7
2016-11-23T08:30:13.619Z,10.8
2016-11-23T08:31:19.626Z,10.8
2016-11-23T08:32:25.618Z,10.9
2016-11-23T08:33:31.625Z,10.9
2016-11-23T08:34:37.625Z,10.9
2016-11-23T08:35:43.634Z,11
2016-11-23T08:36:49.625Z,11
2016-11-23T08:37:55.631Z,11
2016-11-23T08:39:01.633Z,11
2016-11-23T08:40:07.641Z,11.1
2016-11-23T08:41:13.636Z,11.2
2016-11-23T08:42:19.639Z,11.2
2016-11-23T08:43:25.643Z,11.3
2016-11-23T08:44:31.635Z,11.3
2016-11-23T08:45:37.637Z,11.4
2016-11-23T08:46:43.639Z,11.4
2016-11-23T08:47:49.643Z,11.4
2016-11-23T08:48:55.640Z,11.5
2016-11-23T08:50:01.639Z,11.5
2016-11-23T08:51:07.649Z,11.5
2016-11-23T08:52:13.644Z,11.6
2016-11-23T08:54:28.375Z,11.7
2016-11-23T08:55:34.373Z,11.7
2016-11-23T08:56:40.377Z,11.7
2016-11-23T08:57:46.382Z,11.7
2016-11-23T08:58:52.386Z,11.8
2016-11-23T08:59:58.383Z,11.8
2016-11-23T09:01:04.389Z,11.9
2016-11-23T09:02:10.397Z,11.9
2016-11-23T09:03:16.398Z,12
2016-11-23T09:04:22.398Z,12
2016-11-23T09:05:28.400Z,12
2016-11-23T09:06:34.406Z,12.1
2016-11-23T09:07:40.404Z,12.1
2016-11-23T09:08:46.407Z,12.1
2016-11-23T09:09:52.405Z,12.2
2016-11-23T09:10:58.409Z,12.2
2016-11-23T09:12:04.412Z,12.2
2016-11-23T09:13:10.418Z,12.2
2016-11-23T09:14:16.418Z,12.3
2016-11-23T09:15:22.418Z,12.3
2016-11-23T09:16:28.415Z,12.3
2016-11-23T09:17:40.816Z,12.3
2016-11-23T09:18:46.815Z,12.3
2016-11-23T09:19:52.817Z,12.4
2016-11-23T09:20:58.826Z,12.5
2016-11-23T09:22:04.833Z,12.5
2016-11-23T09:23:17.224Z,12.6
2016-11-23T09:24:23.224Z,12.6
2016-11-23T09:25:29.227Z,12.6
2016-11-23T09:26:35.232Z,12.7
2016-11-23T09:27:41.234Z,12.7
2016-11-23T09:28:47.233Z,12.7
2016-11-23T09:29:53.241Z,12.7
2016-11-23T09:30:59.247Z,12.7
2016-11-23T09:32:05.247Z,12.8
2016-11-23T09:33:11.243Z,12.8
2016-11-23T09:34:16.494Z,12.8
2016-11-23T09:35:22.499Z,12.8
2016-11-23T09:36:28.497Z,12.8
2016-11-23T09:37:34.500Z,12.8
2016-11-23T09:38:40.498Z,12.8
2016-11-23T09:39:46.703Z,12.8
2016-11-23T09:40:52.705Z,12.8
2016-11-23T09:41:58.712Z,12.8
2016-11-23T09:43:04.719Z,12.8
2016-11-23T09:44:09.975Z,12.7
2016-11-23T09:45:15.973Z,12.7
2016-11-23T09:46:21.974Z,12.7
2016-11-23T09:47:27.973Z,12.8
2016-11-23T09:48:33.979Z,12.8
2016-11-23T09:49:39.985Z,12.9
2016-11-23T09:50:45.990Z,12.9
2016-11-23T09:51:51.989Z,12.9
2016-11-23T09:54:05.629Z,12.9
2016-11-23T09:55:11.627Z,13
2016-11-23T09:56:17.628Z,12.9
2016-11-23T09:57:23.634Z,12.9
2016-11-23T09:58:29.641Z,13
2016-11-23T09:59:35.638Z,13
2016-11-23T10:00:45.784Z,13
2016-11-23T10:01:51.783Z,13.1
2016-11-23T10:02:57.787Z,13
2016-11-23T10:04:03.790Z,13
2016-11-23T10:05:09.792Z,13.1
2016-11-23T10:06:15.792Z,13.1
2016-11-23T10:07:21.797Z,13.2
2016-11-23T10:08:27.805Z,13.3
2016-11-23T10:09:33.812Z,13.4
2016-11-23T10:10:39.812Z,13.5
2016-11-23T10:11:45.812Z,13.6
2016-11-23T10:12:51.814Z,13.6
2016-11-23T10:13:57.813Z,13.7
2016-11-23T10:15:03.817Z,13.7
2016-11-23T10:16:09.811Z,13.7
2016-11-23T10:17:15.814Z,13.8
2016-11-23T10:18:21.813Z,13.8
2016-11-23T10:19:27.819Z,13.9
2016-11-23T10:20:33.823Z,13.9
2016-11-23T10:21:39.825Z,14
2016-11-23T10:22:45.824Z,14
2016-11-23T10:23:51.823Z,14
2016-11-23T10:24:57.830Z,14
2016-11-23T10:26:03.836Z,14.1
2016-11-23T10:27:09.836Z,14.1
2016-11-23T10:29:24.579Z,14.1
2016-11-23T10:30:30.579Z,14.2
2016-11-23T10:31:36.582Z,14.3
2016-11-23T10:32:42.580Z,14.3
2016-11-23T10:33:48.585Z,14.4
2016-11-23T10:34:54.585Z,14.4
2016-11-23T10:36:00.592Z,14.3
2016-11-23T10:37:06.596Z,14.5
2016-11-23T10:38:12.803Z,14.6
2016-11-23T10:39:18.803Z,14.6
2016-11-23T10:40:24.805Z,14.6
2016-11-23T10:41:30.806Z,14.6
2016-11-23T10:42:36.804Z,14.6
2016-11-23T10:43:42.803Z,14.5
2016-11-23T10:44:48.801Z,14.5
2016-11-23T10:45:54.804Z,14.5
2016-11-23T10:47:01.004Z,14.5
2016-11-23T10:48:07.012Z,14.5
2016-11-23T10:49:13.015Z,14.5
2016-11-23T10:50:19.015Z,14.5
2016-11-23T10:51:25.013Z,14.6
2016-11-23T10:52:31.012Z,14.5
2016-11-23T10:53:37.018Z,14.5
2016-11-23T10:54:43.027Z,14.4
2016-11-23T10:55:49.025Z,14.4
2016-11-23T10:56:55.026Z,14.4
2016-11-23T10:58:01.029Z,14.4
2016-11-23T10:59:07.036Z,14.3
2016-11-23T11:00:13.025Z,14.3
2016-11-23T11:01:19.026Z,14.1
2016-11-23T11:02:25.029Z,14.2
2016-11-23T11:03:31.038Z,14.3
2016-11-23T11:04:37.031Z,14.2
2016-11-23T11:05:43.040Z,14.1
2016-11-23T11:06:49.041Z,14.2
2016-11-23T11:07:55.052Z,14.2
2016-11-23T11:09:08.554Z,14.1
2016-11-23T11:10:14.552Z,14.1
2016-11-23T11:11:20.556Z,14.1
2016-11-23T11:12:26.553Z,14.1
2016-11-23T11:13:32.556Z,14.2
2016-11-23T11:14:38.556Z,14.3
2016-11-23T11:15:44.562Z,14.3
2016-11-23T11:16:50.769Z,14.2
2016-11-23T11:17:56.768Z,14.2
2016-11-23T11:19:02.770Z,14.3
2016-11-23T11:20:08.768Z,14.5
2016-11-23T11:21:14.772Z,14.6
2016-11-23T11:22:20.771Z,14.7
2016-11-23T11:23:26.772Z,14.8
2016-11-23T11:24:32.770Z,14.9
2016-11-23T11:25:38.771Z,14.9
2016-11-23T11:27:52.423Z,15
2016-11-23T11:28:58.422Z,15.1
2016-11-23T11:30:04.425Z,15.2
2016-11-23T11:31:10.423Z,15.3
2016-11-23T11:32:16.426Z,15.3
2016-11-23T11:33:22.425Z,15.3
2016-11-23T11:34:28.432Z,15.3
2016-11-23T11:35:34.440Z,15.3
2016-11-23T11:36:40.447Z,15.3
2016-11-23T11:37:46.446Z,15.4
2016-11-23T11:38:52.446Z,15.4
2016-11-23T11:39:58.450Z,15.4
2016-11-23T11:41:04.449Z,15.5
2016-11-23T11:42:10.453Z,15.4
2016-11-23T11:43:16.451Z,15.4
2016-11-23T11:44:22.456Z,15.5
2016-11-23T11:45:28.455Z,15.5
2016-11-23T11:46:34.459Z,15.5
2016-11-23T11:47:40.462Z,15.5
2016-11-23T11:48:46.462Z,15.5
2016-11-23T11:49:52.466Z,15.5
2016-11-23T11:50:58.467Z,15.5
2016-11-23T11:52:04.475Z,15.5
2016-11-23T11:53:10.479Z,15.5
2016-11-23T11:54:16.485Z,15.5
2016-11-23T11:55:22.484Z,15.5
2016-11-23T11:56:28.495Z,15.5
2016-11-23T11:57:34.504Z,15.5
2016-11-23T11:58:40.503Z,15.6
2016-11-23T11:59:46.504Z,15.6
2016-11-23T12:00:52.507Z,15.6
2016-11-23T12:01:58.515Z,15.6
2016-11-23T12:03:04.509Z,15.6
2016-11-23T12:04:10.514Z,15.7
2016-11-23T12:05:16.514Z,15.7
2016-11-23T12:06:22.521Z,15.8
2016-11-23T12:07:28.517Z,15.8
2016-11-23T12:08:34.525Z,15.8
2016-11-23T12:09:40.535Z,15.8
2016-11-23T12:10:46.530Z,15.8
2016-11-23T12:11:52.532Z,16
2016-11-23T12:12:58.539Z,16.1
2016-11-23T12:14:04.543Z,16.1
2016-11-23T12:15:10.545Z,16.1
2016-11-23T12:16:16.545Z,16.1
2016-11-23T12:17:22.547Z,16.1
2016-11-23T12:18:28.545Z,16
2016-11-23T12:19:34.539Z,15.9
2016-11-23T12:20:40.539Z,16
2016-11-23T12:21:46.532Z,16.1
2016-11-23T12:22:52.539Z,16.1
2016-11-23T12:23:58.542Z,16.2
2016-11-23T12:25:04.755Z,16.2
2016-11-23T12:26:10.747Z,16.3
2016-11-23T12:27:16.758Z,16.3
2016-11-23T12:28:22.760Z,16.3
2016-11-23T12:29:28.757Z,16.4
2016-11-23T12:30:34.755Z,16.4
2016-11-23T12:31:40.766Z,16.4
2016-11-23T12:32:46.769Z,16.4
2016-11-23T12:33:52.773Z,16.4
2016-11-23T12:34:58.771Z,16.4
2016-11-23T12:36:04.809Z,16.3
2016-11-23T12:37:10.796Z,16
2016-11-23T12:38:16.795Z,16
2016-11-23T12:39:22.796Z,16.1
2016-11-23T12:40:28.796Z,16.1
2016-11-23T12:41:34.793Z,15.9
2016-11-23T12:42:40.793Z,15.7
2016-11-23T12:43:46.799Z,15.6
2016-11-23T12:44:52.801Z,15.7
2016-11-23T12:45:58.798Z,15.8
2016-11-23T12:47:04.797Z,16
2016-11-23T12:48:10.801Z,16
2016-11-23T12:49:16.807Z,15.9
2016-11-23T12:50:22.806Z,16.1
2016-11-23T12:51:28.804Z,16.3
2016-11-23T12:52:34.815Z,16.3
2016-11-23T12:53:40.820Z,16.5
2016-11-23T12:54:46.820Z,16.6
2016-11-23T12:55:52.818Z,16.7
2016-11-23T12:56:58.823Z,16.7
2016-11-23T12:58:04.825Z,16.7
2016-11-23T12:59:10.828Z,16.5
2016-11-23T13:00:17.132Z,16.5
2016-11-23T13:01:23.136Z,16.4
2016-11-23T13:02:29.142Z,16.3
2016-11-23T13:03:35.149Z,16.1
2016-11-23T13:04:41.157Z,16.1
2016-11-23T13:05:47.156Z,15.9
2016-11-23T13:06:53.155Z,15.9
2016-11-23T13:07:59.155Z,15.8
2016-11-23T13:09:05.153Z,15.8
2016-11-23T13:10:11.151Z,15.8
2016-11-23T13:11:17.151Z,15.9
2016-11-23T13:12:23.155Z,15.8
2016-11-23T13:13:29.153Z,15.7
2016-11-23T13:14:35.153Z,15.8
2016-11-23T13:15:41.155Z,15.7
2016-11-23T13:16:47.157Z,15.8
2016-11-23T13:17:53.158Z,15.7
2016-11-23T13:18:59.163Z,15.8
2016-11-23T13:20:05.163Z,15.6
2016-11-23T13:21:11.162Z,15.6
2016-11-23T13:22:17.157Z,15.5
2016-11-23T13:23:29.574Z,15.4
2016-11-23T13:24:35.580Z,15.4
2016-11-23T13:25:41.584Z,15.4
2016-11-23T13:26:47.585Z,15.5
2016-11-23T13:27:53.588Z,15.4
2016-11-23T13:28:59.587Z,15.5
2016-11-23T13:30:05.593Z,15.5
2016-11-23T13:31:11.622Z,15.4
2016-11-23T13:32:17.712Z,15.4
2016-11-23T13:33:23.713Z,15.4
2016-11-23T13:34:29.715Z,15.4
2016-11-23T13:35:35.722Z,15.1
2016-11-23T13:36:41.724Z,15.1
2016-11-23T13:37:47.721Z,15.2
2016-11-23T13:38:52.975Z,15.2
2016-11-23T13:39:58.974Z,15.2
2016-11-23T13:41:04.975Z,15.2
2016-11-23T13:42:10.983Z,15.2
2016-11-23T13:43:16.990Z,15.2
2016-11-23T13:44:22.990Z,15.1
2016-11-23T13:45:28.991Z,14.9
2016-11-23T13:46:34.987Z,15
2016-11-23T13:47:40.996Z,15
2016-11-23T13:48:47.000Z,14.9
2016-11-23T13:49:53.004Z,14.8
2016-11-23T13:50:59.117Z,14.8
2016-11-23T13:52:05.252Z,14.8
2016-11-23T13:53:11.257Z,14.8
2016-11-23T13:54:17.257Z,14.9
2016-11-23T13:55:23.258Z,14.9
2016-11-23T13:56:29.261Z,14.8
2016-11-23T13:57:35.273Z,14.8
2016-11-23T13:58:41.265Z,14.6
2016-11-23T13:59:47.271Z,14.5
2016-11-23T14:00:53.271Z,14.5
2016-11-23T14:01:59.282Z,14.3
2016-11-23T14:03:05.280Z,14.3
2016-11-23T14:04:11.282Z,14.3
2016-11-23T14:05:17.286Z,14.3
2016-11-23T14:06:23.279Z,14.3
2016-11-23T14:07:29.286Z,14.1
2016-11-23T14:08:35.288Z,13.9
2016-11-23T14:09:41.292Z,14
2016-11-23T14:10:47.289Z,14
2016-11-23T14:11:53.296Z,13.9
2016-11-23T14:12:59.299Z,13.9
2016-11-23T14:14:05.299Z,14
2016-11-23T14:15:11.294Z,14
2016-11-23T14:16:17.292Z,14
2016-11-23T14:17:23.285Z,14
2016-11-23T14:18:29.290Z,13.8
2016-11-23T14:19:35.291Z,13.6
2016-11-23T14:20:41.501Z,13.5
2016-11-23T14:21:47.493Z,13.4
2016-11-23T14:22:53.503Z,13.4
2016-11-23T14:23:59.507Z,13.4
2016-11-23T14:25:05.508Z,13.3
2016-11-23T14:26:11.505Z,13.1
2016-11-23T14:27:17.513Z,13
2016-11-23T14:28:23.509Z,12.9
2016-11-23T14:29:29.512Z,12.9
2016-11-23T14:30:35.518Z,13
2016-11-23T14:31:41.531Z,13
2016-11-23T14:32:47.534Z,13
2016-11-23T14:33:52.787Z,12.9
2016-11-23T14:34:58.789Z,12.8
2016-11-23T14:36:04.791Z,12.8
2016-11-23T14:37:18.290Z,12.9
2016-11-23T14:38:24.293Z,12.8
2016-11-23T14:39:30.298Z,12.7
2016-11-23T14:40:36.305Z,12.7
2016-11-23T14:41:42.309Z,12.6
2016-11-23T14:42:48.306Z,12.5
2016-11-23T14:43:54.311Z,12.5
2016-11-23T14:45:00.318Z,12.6
2016-11-23T14:46:06.324Z,12.5
2016-11-23T14:47:12.326Z,12.4
2016-11-23T14:48:18.327Z,12.4
2016-11-23T14:49:24.326Z,12.3
2016-11-23T14:50:30.325Z,12.2
2016-11-23T14:51:36.327Z,12.3
2016-11-23T14:52:42.327Z,12.2
2016-11-23T14:53:48.328Z,12.2
2016-11-23T14:54:54.329Z,12.2
2016-11-23T14:56:00.336Z,12.2
2016-11-23T14:57:06.342Z,12.1
2016-11-23T14:58:12.345Z,12.1
2016-11-23T14:59:18.344Z,12.1
2016-11-23T15:00:24.391Z,12.1